Terminal Aerodrome Forecast
Issued by NWS

Home | Current Version | Previous Version | Text Only | Print | Product List | Glossary On
Versions: 1 2 3 4 5 6 7 8 9 10 11 12 13 14 15 16 17 18 19 20
000
FTPA31 PHFO 231100 RRA
TAFKOA
TAF
PHKO 231148Z 2312/2412 07005KT P6SM FEW030 SCT060
     FM232000 25009KT P6SM FEW030 BKN060
     FM240500 17008KT P6SM BKN060
     FM240800 07006KT P6SM FEW060=

USA.gov is the U.S. government's official web portal to all federal, state and local government web resources and services.